sensor_id;sensor_type;location;lat;lon;timestamp;P1;durP1;ratioP1;P2;durP2;ratioP2
58260;SDS011;44058;52.898;6.502;2022-12-18T00:01:31;71.73;;;26.17;;
58260;SDS011;44058;52.898;6.502;2022-12-18T00:03:58;76.93;;;26.60;;
58260;SDS011;44058;52.898;6.502;2022-12-18T00:06:25;73.70;;;26.27;;
58260;SDS011;44058;52.898;6.502;2022-12-18T00:08:52;76.00;;;26.70;;
58260;SDS011;44058;52.898;6.502;2022-12-18T00:11:19;79.13;;;27.80;;
58260;SDS011;44058;52.898;6.502;2022-12-18T00:13:46;67.90;;;25.47;;
58260;SDS011;44058;52.898;6.502;2022-12-18T00:16:13;64.57;;;23.83;;
58260;SDS011;44058;52.898;6.502;2022-12-18T00:18:40;70.27;;;26.57;;
58260;SDS011;44058;52.898;6.502;2022-12-18T00:21:07;72.60;;;26.30;;
58260;SDS011;44058;52.898;6.502;2022-12-18T00:23:34;74.47;;;26.37;;
58260;SDS011;44058;52.898;6.502;2022-12-18T00:26:02;84.87;;;29.00;;
58260;SDS011;44058;52.898;6.502;2022-12-18T00:28:28;85.90;;;27.97;;
58260;SDS011;44058;52.898;6.502;2022-12-18T00:31:03;81.40;;;27.83;;
58260;SDS011;44058;52.898;6.502;2022-12-18T00:33:30;82.53;;;28.10;;
58260;SDS011;44058;52.898;6.502;2022-12-18T00:36:04;78.03;;;26.80;;
58260;SDS011;44058;52.898;6.502;2022-12-18T00:38:31;81.13;;;28.87;;
58260;SDS011;44058;52.898;6.502;2022-12-18T00:40:57;81.50;;;27.60;;
58260;SDS011;44058;52.898;6.502;2022-12-18T00:43:23;77.00;;;26.17;;
58260;SDS011;44058;52.898;6.502;2022-12-18T00:45:49;78.17;;;26.33;;
58260;SDS011;44058;52.898;6.502;2022-12-18T00:48:16;70.70;;;25.27;;
58260;SDS011;44058;52.898;6.502;2022-12-18T00:50:42;76.43;;;26.83;;
58260;SDS011;44058;52.898;6.502;2022-12-18T00:53:11;74.17;;;26.57;;
58260;SDS011;44058;52.898;6.502;2022-12-18T00:55:38;66.53;;;24.38;;
58260;SDS011;44058;52.898;6.502;2022-12-18T00:58:04;79.33;;;25.90;;
58260;SDS011;44058;52.898;6.502;2022-12-18T01:00:31;82.03;;;28.13;;
58260;SDS011;44058;52.898;6.502;2022-12-18T01:02:57;77.87;;;26.57;;
58260;SDS011;44058;52.898;6.502;2022-12-18T01:05:23;79.87;;;26.63;;
58260;SDS011;44058;52.898;6.502;2022-12-18T01:07:50;84.03;;;27.50;;
58260;SDS011;44058;52.898;6.502;2022-12-18T01:10:17;81.67;;;27.37;;
58260;SDS011;44058;52.898;6.502;2022-12-18T01:12:43;84.43;;;27.93;;
58260;SDS011;44058;52.898;6.502;2022-12-18T01:15:11;81.50;;;26.17;;
58260;SDS011;44058;52.898;6.502;2022-12-18T01:17:47;82.80;;;27.73;;
58260;SDS011;44058;52.898;6.502;2022-12-18T01:20:13;90.73;;;29.00;;
58260;SDS011;44058;52.898;6.502;2022-12-18T01:22:40;79.00;;;26.93;;
58260;SDS011;44058;52.898;6.502;2022-12-18T01:25:10;83.77;;;29.03;;
58260;SDS011;44058;52.898;6.502;2022-12-18T01:27:36;78.80;;;28.47;;
58260;SDS011;44058;52.898;6.502;2022-12-18T01:30:03;81.83;;;27.03;;
58260;SDS011;44058;52.898;6.502;2022-12-18T01:32:30;77.37;;;27.57;;
58260;SDS011;44058;52.898;6.502;2022-12-18T01:35:01;75.67;;;27.10;;
58260;SDS011;44058;52.898;6.502;2022-12-18T01:37:33;76.90;;;27.50;;
58260;SDS011;44058;52.898;6.502;2022-12-18T01:39:59;76.27;;;27.43;;
58260;SDS011;44058;52.898;6.502;2022-12-18T01:42:25;80.00;;;28.43;;
58260;SDS011;44058;52.898;6.502;2022-12-18T01:47:20;73.13;;;28.17;;
58260;SDS011;44058;52.898;6.502;2022-12-18T01:49:46;74.85;;;29.65;;
58260;SDS011;44058;52.898;6.502;2022-12-18T01:52:13;77.70;;;29.60;;
58260;SDS011;44058;52.898;6.502;2022-12-18T01:54:39;81.03;;;30.33;;
58260;SDS011;44058;52.898;6.502;2022-12-18T01:57:06;83.67;;;30.20;;
58260;SDS011;44058;52.898;6.502;2022-12-18T01:59:32;76.60;;;28.80;;
58260;SDS011;44058;52.898;6.502;2022-12-18T02:01:59;72.53;;;29.87;;
58260;SDS011;44058;52.898;6.502;2022-12-18T02:04:41;84.95;;;30.63;;
58260;SDS011;44058;52.898;6.502;2022-12-18T02:09:58;79.83;;;30.20;;
58260;SDS011;44058;52.898;6.502;2022-12-18T02:12:34;80.50;;;30.63;;
58260;SDS011;44058;52.898;6.502;2022-12-18T02:15:06;78.60;;;30.53;;
58260;SDS011;44058;52.898;6.502;2022-12-18T02:17:41;74.93;;;29.37;;
58260;SDS011;44058;52.898;6.502;2022-12-18T02:28:02;68.17;;;27.70;;
58260;SDS011;44058;52.898;6.502;2022-12-18T02:30:31;71.97;;;27.60;;
58260;SDS011;44058;52.898;6.502;2022-12-18T02:32:59;68.33;;;26.87;;
58260;SDS011;44058;52.898;6.502;2022-12-18T02:35:27;68.93;;;27.03;;
58260;SDS011;44058;52.898;6.502;2022-12-18T02:37:55;68.72;;;26.80;;
58260;SDS011;44058;52.898;6.502;2022-12-18T02:40:23;67.03;;;26.97;;
58260;SDS011;44058;52.898;6.502;2022-12-18T02:42:49;73.83;;;28.63;;
58260;SDS011;44058;52.898;6.502;2022-12-18T02:45:16;67.67;;;24.83;;
58260;SDS011;44058;52.898;6.502;2022-12-18T02:47:43;67.43;;;26.13;;
58260;SDS011;44058;52.898;6.502;2022-12-18T02:55:46;69.33;;;27.20;;
58260;SDS011;44058;52.898;6.502;2022-12-18T02:58:15;66.20;;;25.93;;
58260;SDS011;44058;52.898;6.502;2022-12-18T03:00:50;71.27;;;26.07;;
58260;SDS011;44058;52.898;6.502;2022-12-18T03:03:24;64.23;;;26.63;;
58260;SDS011;44058;52.898;6.502;2022-12-18T03:05:55;66.10;;;25.90;;
58260;SDS011;44058;52.898;6.502;2022-12-18T03:08:23;67.10;;;26.73;;
58260;SDS011;44058;52.898;6.502;2022-12-18T03:10:55;67.97;;;27.07;;
58260;SDS011;44058;52.898;6.502;2022-12-18T03:13:25;63.87;;;25.43;;
58260;SDS011;44058;52.898;6.502;2022-12-18T03:15:53;70.07;;;27.60;;
58260;SDS011;44058;52.898;6.502;2022-12-18T03:18:30;57.37;;;25.23;;
58260;SDS011;44058;52.898;6.502;2022-12-18T03:21:00;62.30;;;26.27;;
58260;SDS011;44058;52.898;6.502;2022-12-18T03:25:56;65.00;;;25.43;;
58260;SDS011;44058;52.898;6.502;2022-12-18T03:28:23;64.03;;;23.83;;
58260;SDS011;44058;52.898;6.502;2022-12-18T03:30:52;64.17;;;25.70;;
58260;SDS011;44058;52.898;6.502;2022-12-18T03:33:24;62.63;;;25.07;;
58260;SDS011;44058;52.898;6.502;2022-12-18T03:35:51;62.30;;;25.13;;
58260;SDS011;44058;52.898;6.502;2022-12-18T03:38:18;55.53;;;24.33;;
58260;SDS011;44058;52.898;6.502;2022-12-18T03:40:52;59.77;;;25.00;;
58260;SDS011;44058;52.898;6.502;2022-12-18T03:46:09;63.20;;;24.30;;
58260;SDS011;44058;52.898;6.502;2022-12-18T03:48:39;60.60;;;24.23;;
58260;SDS011;44058;52.898;6.502;2022-12-18T03:51:09;63.97;;;24.73;;
58260;SDS011;44058;52.898;6.502;2022-12-18T03:53:51;65.78;;;27.20;;
58260;SDS011;44058;52.898;6.502;2022-12-18T03:56:18;65.33;;;25.20;;
58260;SDS011;44058;52.898;6.502;2022-12-18T03:58:46;67.73;;;24.40;;
58260;SDS011;44058;52.898;6.502;2022-12-18T04:01:14;63.37;;;26.63;;
58260;SDS011;44058;52.898;6.502;2022-12-18T04:03:41;67.47;;;25.83;;
58260;SDS011;44058;52.898;6.502;2022-12-18T04:06:08;62.63;;;24.17;;
58260;SDS011;44058;52.898;6.502;2022-12-18T04:08:35;62.03;;;24.07;;
58260;SDS011;44058;52.898;6.502;2022-12-18T04:11:02;62.00;;;25.30;;
58260;SDS011;44058;52.898;6.502;2022-12-18T04:13:29;59.07;;;24.87;;
58260;SDS011;44058;52.898;6.502;2022-12-18T04:15:56;64.80;;;24.90;;
58260;SDS011;44058;52.898;6.502;2022-12-18T04:18:22;56.10;;;22.80;;
58260;SDS011;44058;52.898;6.502;2022-12-18T04:20:48;61.10;;;24.67;;
58260;SDS011;44058;52.898;6.502;2022-12-18T04:23:14;60.40;;;23.20;;
58260;SDS011;44058;52.898;6.502;2022-12-18T04:25:40;58.50;;;23.67;;
58260;SDS011;44058;52.898;6.502;2022-12-18T04:28:06;52.83;;;22.73;;
58260;SDS011;44058;52.898;6.502;2022-12-18T04:30:32;53.03;;;23.50;;
58260;SDS011;44058;52.898;6.502;2022-12-18T04:32:59;57.17;;;23.50;;
58260;SDS011;44058;52.898;6.502;2022-12-18T04:35:25;51.00;;;23.47;;
58260;SDS011;44058;52.898;6.502;2022-12-18T04:37:51;54.73;;;22.20;;
58260;SDS011;44058;52.898;6.502;2022-12-18T04:40:18;51.97;;;22.53;;
58260;SDS011;44058;52.898;6.502;2022-12-18T04:42:44;49.60;;;22.77;;
58260;SDS011;44058;52.898;6.502;2022-12-18T04:45:10;50.90;;;22.57;;
58260;SDS011;44058;52.898;6.502;2022-12-18T04:47:37;48.93;;;20.30;;
58260;SDS011;44058;52.898;6.502;2022-12-18T04:50:03;53.87;;;22.87;;
58260;SDS011;44058;52.898;6.502;2022-12-18T04:52:35;51.10;;;22.77;;
58260;SDS011;44058;52.898;6.502;2022-12-18T04:55:02;50.17;;;22.20;;
58260;SDS011;44058;52.898;6.502;2022-12-18T04:57:28;47.83;;;21.90;;
58260;SDS011;44058;52.898;6.502;2022-12-18T04:59:54;54.73;;;21.23;;
58260;SDS011;44058;52.898;6.502;2022-12-18T05:02:21;50.20;;;22.40;;
58260;SDS011;44058;52.898;6.502;2022-12-18T05:04:47;57.43;;;23.10;;
58260;SDS011;44058;52.898;6.502;2022-12-18T05:07:13;50.13;;;20.03;;
58260;SDS011;44058;52.898;6.502;2022-12-18T05:09:39;44.73;;;20.23;;
58260;SDS011;44058;52.898;6.502;2022-12-18T05:12:05;46.73;;;20.77;;
58260;SDS011;44058;52.898;6.502;2022-12-18T05:14:31;44.40;;;21.33;;
58260;SDS011;44058;52.898;6.502;2022-12-18T05:16:58;49.03;;;19.27;;
58260;SDS011;44058;52.898;6.502;2022-12-18T05:19:24;50.23;;;21.70;;
58260;SDS011;44058;52.898;6.502;2022-12-18T05:21:50;43.83;;;19.83;;
58260;SDS011;44058;52.898;6.502;2022-12-18T05:24:16;41.87;;;20.17;;
58260;SDS011;44058;52.898;6.502;2022-12-18T05:26:42;42.50;;;18.83;;
58260;SDS011;44058;52.898;6.502;2022-12-18T05:29:08;42.07;;;18.40;;
58260;SDS011;44058;52.898;6.502;2022-12-18T05:31:37;43.13;;;18.30;;
58260;SDS011;44058;52.898;6.502;2022-12-18T05:34:04;47.50;;;20.00;;
58260;SDS011;44058;52.898;6.502;2022-12-18T05:36:30;45.30;;;19.00;;
58260;SDS011;44058;52.898;6.502;2022-12-18T05:38:57;43.60;;;18.70;;
58260;SDS011;44058;52.898;6.502;2022-12-18T05:41:24;38.17;;;17.90;;
58260;SDS011;44058;52.898;6.502;2022-12-18T05:43:50;37.83;;;18.17;;
58260;SDS011;44058;52.898;6.502;2022-12-18T05:46:16;40.40;;;18.67;;
58260;SDS011;44058;52.898;6.502;2022-12-18T05:48:43;36.57;;;17.70;;
58260;SDS011;44058;52.898;6.502;2022-12-18T05:51:11;38.63;;;18.70;;
58260;SDS011;44058;52.898;6.502;2022-12-18T05:53:41;38.77;;;16.53;;
58260;SDS011;44058;52.898;6.502;2022-12-18T05:56:09;38.43;;;18.90;;
58260;SDS011;44058;52.898;6.502;2022-12-18T05:58:35;41.50;;;18.27;;
58260;SDS011;44058;52.898;6.502;2022-12-18T06:01:17;41.90;;;18.07;;
58260;SDS011;44058;52.898;6.502;2022-12-18T06:03:43;37.47;;;17.30;;
58260;SDS011;44058;52.898;6.502;2022-12-18T06:06:13;34.87;;;16.27;;
58260;SDS011;44058;52.898;6.502;2022-12-18T06:08:40;40.07;;;17.43;;
58260;SDS011;44058;52.898;6.502;2022-12-18T06:11:06;35.93;;;17.17;;
58260;SDS011;44058;52.898;6.502;2022-12-18T06:13:32;35.50;;;17.60;;
58260;SDS011;44058;52.898;6.502;2022-12-18T06:16:01;39.23;;;17.57;;
58260;SDS011;44058;52.898;6.502;2022-12-18T06:18:27;36.80;;;16.73;;
58260;SDS011;44058;52.898;6.502;2022-12-18T06:20:54;36.13;;;17.50;;
58260;SDS011;44058;52.898;6.502;2022-12-18T06:23:25;35.43;;;17.77;;
58260;SDS011;44058;52.898;6.502;2022-12-18T06:25:51;32.70;;;16.37;;
58260;SDS011;44058;52.898;6.502;2022-12-18T06:28:17;28.67;;;15.80;;
58260;SDS011;44058;52.898;6.502;2022-12-18T06:30:44;32.60;;;15.93;;
58260;SDS011;44058;52.898;6.502;2022-12-18T06:33:10;34.60;;;16.47;;
58260;SDS011;44058;52.898;6.502;2022-12-18T06:35:36;33.07;;;15.60;;
58260;SDS011;44058;52.898;6.502;2022-12-18T06:38:02;37.93;;;17.60;;
58260;SDS011;44058;52.898;6.502;2022-12-18T06:40:29;33.60;;;15.53;;
58260;SDS011;44058;52.898;6.502;2022-12-18T06:42:56;35.73;;;16.03;;
58260;SDS011;44058;52.898;6.502;2022-12-18T06:45:22;33.70;;;15.47;;
58260;SDS011;44058;52.898;6.502;2022-12-18T06:47:49;35.50;;;16.57;;
58260;SDS011;44058;52.898;6.502;2022-12-18T06:50:18;30.02;;;15.75;;
58260;SDS011;44058;52.898;6.502;2022-12-18T06:52:44;31.57;;;16.03;;
58260;SDS011;44058;52.898;6.502;2022-12-18T06:55:11;32.67;;;15.97;;
58260;SDS011;44058;52.898;6.502;2022-12-18T06:57:41;27.83;;;15.53;;
58260;SDS011;44058;52.898;6.502;2022-12-18T07:00:07;34.13;;;16.50;;
58260;SDS011;44058;52.898;6.502;2022-12-18T07:02:33;33.57;;;16.60;;
58260;SDS011;44058;52.898;6.502;2022-12-18T07:05:00;33.00;;;17.30;;
58260;SDS011;44058;52.898;6.502;2022-12-18T07:07:26;31.03;;;15.53;;
58260;SDS011;44058;52.898;6.502;2022-12-18T07:09:52;30.27;;;15.23;;
58260;SDS011;44058;52.898;6.502;2022-12-18T07:12:18;31.37;;;15.13;;
58260;SDS011;44058;52.898;6.502;2022-12-18T07:14:45;30.97;;;15.43;;
58260;SDS011;44058;52.898;6.502;2022-12-18T07:17:21;32.60;;;15.80;;
58260;SDS011;44058;52.898;6.502;2022-12-18T07:19:48;35.57;;;15.37;;
58260;SDS011;44058;52.898;6.502;2022-12-18T07:22:14;33.87;;;16.87;;
58260;SDS011;44058;52.898;6.502;2022-12-18T07:24:40;32.33;;;15.97;;
58260;SDS011;44058;52.898;6.502;2022-12-18T07:27:07;37.33;;;16.90;;
58260;SDS011;44058;52.898;6.502;2022-12-18T07:29:33;32.07;;;15.17;;
58260;SDS011;44058;52.898;6.502;2022-12-18T07:31:59;35.67;;;17.20;;
58260;SDS011;44058;52.898;6.502;2022-12-18T07:34:31;28.83;;;15.77;;
58260;SDS011;44058;52.898;6.502;2022-12-18T07:36:58;39.43;;;16.60;;
58260;SDS011;44058;52.898;6.502;2022-12-18T07:39:24;34.37;;;16.30;;
58260;SDS011;44058;52.898;6.502;2022-12-18T07:41:50;33.73;;;16.57;;
58260;SDS011;44058;52.898;6.502;2022-12-18T07:44:44;36.73;;;17.17;;
58260;SDS011;44058;52.898;6.502;2022-12-18T07:47:10;34.10;;;16.23;;
58260;SDS011;44058;52.898;6.502;2022-12-18T07:49:36;33.67;;;15.87;;
58260;SDS011;44058;52.898;6.502;2022-12-18T07:52:02;31.33;;;14.70;;
58260;SDS011;44058;52.898;6.502;2022-12-18T07:54:29;36.37;;;15.37;;
58260;SDS011;44058;52.898;6.502;2022-12-18T07:56:55;32.47;;;15.40;;
58260;SDS011;44058;52.898;6.502;2022-12-18T07:59:21;31.27;;;15.50;;
58260;SDS011;44058;52.898;6.502;2022-12-18T08:01:47;27.87;;;14.67;;
58260;SDS011;44058;52.898;6.502;2022-12-18T08:04:16;28.65;;;16.40;;
58260;SDS011;44058;52.898;6.502;2022-12-18T08:06:42;29.73;;;15.67;;
58260;SDS011;44058;52.898;6.502;2022-12-18T08:09:09;27.67;;;15.10;;
58260;SDS011;44058;52.898;6.502;2022-12-18T08:11:41;28.60;;;15.13;;
58260;SDS011;44058;52.898;6.502;2022-12-18T08:14:09;28.13;;;15.73;;
58260;SDS011;44058;52.898;6.502;2022-12-18T08:16:44;28.37;;;14.33;;
58260;SDS011;44058;52.898;6.502;2022-12-18T08:19:10;28.73;;;15.17;;
58260;SDS011;44058;52.898;6.502;2022-12-18T08:21:36;28.17;;;14.87;;
58260;SDS011;44058;52.898;6.502;2022-12-18T08:24:05;25.23;;;14.07;;
58260;SDS011;44058;52.898;6.502;2022-12-18T08:26:32;28.37;;;15.20;;
58260;SDS011;44058;52.898;6.502;2022-12-18T08:28:59;26.47;;;13.60;;
58260;SDS011;44058;52.898;6.502;2022-12-18T08:31:26;28.00;;;15.13;;
58260;SDS011;44058;52.898;6.502;2022-12-18T08:33:53;26.77;;;14.43;;
58260;SDS011;44058;52.898;6.502;2022-12-18T08:36:20;27.67;;;14.23;;
58260;SDS011;44058;52.898;6.502;2022-12-18T08:38:46;23.90;;;13.07;;
58260;SDS011;44058;52.898;6.502;2022-12-18T08:41:13;27.00;;;13.90;;
58260;SDS011;44058;52.898;6.502;2022-12-18T08:43:40;27.10;;;14.33;;
58260;SDS011;44058;52.898;6.502;2022-12-18T08:46:26;23.40;;;12.97;;
58260;SDS011;44058;52.898;6.502;2022-12-18T08:48:53;24.47;;;13.37;;
58260;SDS011;44058;52.898;6.502;2022-12-18T08:51:21;22.97;;;12.13;;
58260;SDS011;44058;52.898;6.502;2022-12-18T08:53:47;22.03;;;12.40;;
58260;SDS011;44058;52.898;6.502;2022-12-18T08:56:13;24.17;;;13.10;;
58260;SDS011;44058;52.898;6.502;2022-12-18T08:58:40;23.37;;;13.30;;
58260;SDS011;44058;52.898;6.502;2022-12-18T09:01:07;23.73;;;13.53;;
58260;SDS011;44058;52.898;6.502;2022-12-18T09:03:34;23.53;;;12.80;;
58260;SDS011;44058;52.898;6.502;2022-12-18T09:06:03;22.43;;;12.43;;
58260;SDS011;44058;52.898;6.502;2022-12-18T09:08:32;22.23;;;12.75;;
58260;SDS011;44058;52.898;6.502;2022-12-18T09:11:01;28.23;;;13.60;;
58260;SDS011;44058;52.898;6.502;2022-12-18T09:13:28;23.57;;;13.30;;
58260;SDS011;44058;52.898;6.502;2022-12-18T09:15:55;22.73;;;12.57;;
58260;SDS011;44058;52.898;6.502;2022-12-18T09:18:22;21.73;;;12.70;;
58260;SDS011;44058;52.898;6.502;2022-12-18T09:20:48;21.77;;;12.67;;
58260;SDS011;44058;52.898;6.502;2022-12-18T09:23:18;22.77;;;12.83;;
58260;SDS011;44058;52.898;6.502;2022-12-18T09:25:44;21.83;;;12.53;;
58260;SDS011;44058;52.898;6.502;2022-12-18T09:28:14;21.33;;;11.80;;
58260;SDS011;44058;52.898;6.502;2022-12-18T09:30:42;21.00;;;12.00;;
58260;SDS011;44058;52.898;6.502;2022-12-18T09:33:09;19.07;;;11.17;;
58260;SDS011;44058;52.898;6.502;2022-12-18T09:35:38;17.27;;;10.97;;
58260;SDS011;44058;52.898;6.502;2022-12-18T09:38:04;20.02;;;10.05;;
58260;SDS011;44058;52.898;6.502;2022-12-18T09:40:35;20.33;;;10.83;;
58260;SDS011;44058;52.898;6.502;2022-12-18T09:43:03;18.77;;;10.90;;
58260;SDS011;44058;52.898;6.502;2022-12-18T09:45:35;18.20;;;10.20;;
58260;SDS011;44058;52.898;6.502;2022-12-18T09:48:30;15.77;;;9.17;;
58260;SDS011;44058;52.898;6.502;2022-12-18T09:51:03;14.87;;;8.87;;
58260;SDS011;44058;52.898;6.502;2022-12-18T09:53:35;18.13;;;9.77;;
58260;SDS011;44058;52.898;6.502;2022-12-18T09:56:03;15.27;;;9.50;;
58260;SDS011;44058;52.898;6.502;2022-12-18T10:00:56;12.80;;;8.77;;
58260;SDS011;44058;52.898;6.502;2022-12-18T10:03:23;15.47;;;9.33;;
58260;SDS011;44058;52.898;6.502;2022-12-18T10:08:27;14.87;;;9.17;;
58260;SDS011;44058;52.898;6.502;2022-12-18T10:14:11;12.53;;;8.33;;
58260;SDS011;44058;52.898;6.502;2022-12-18T10:21:51;13.60;;;7.60;;
58260;SDS011;44058;52.898;6.502;2022-12-18T10:24:38;11.13;;;7.40;;
58260;SDS011;44058;52.898;6.502;2022-12-18T10:27:16;14.47;;;8.33;;
58260;SDS011;44058;52.898;6.502;2022-12-18T10:29:42;11.17;;;7.73;;
58260;SDS011;44058;52.898;6.502;2022-12-18T10:32:16;10.50;;;7.43;;
58260;SDS011;44058;52.898;6.502;2022-12-18T10:34:46;12.10;;;7.50;;
58260;SDS011;44058;52.898;6.502;2022-12-18T10:37:20;11.13;;;7.10;;
58260;SDS011;44058;52.898;6.502;2022-12-18T10:40:04;10.97;;;7.20;;
58260;SDS011;44058;52.898;6.502;2022-12-18T10:42:42;11.97;;;7.17;;
58260;SDS011;44058;52.898;6.502;2022-12-18T10:45:10;11.17;;;6.90;;
58260;SDS011;44058;52.898;6.502;2022-12-18T10:47:40;10.70;;;6.50;;
58260;SDS011;44058;52.898;6.502;2022-12-18T10:50:16;11.00;;;6.50;;
58260;SDS011;44058;52.898;6.502;2022-12-18T10:52:43;10.40;;;6.27;;
58260;SDS011;44058;52.898;6.502;2022-12-18T10:55:20;11.77;;;6.70;;
58260;SDS011;44058;52.898;6.502;2022-12-18T10:57:46;11.20;;;6.97;;
58260;SDS011;44058;52.898;6.502;2022-12-18T11:00:28;9.13;;;6.23;;
58260;SDS011;44058;52.898;6.502;2022-12-18T11:02:55;11.13;;;6.50;;
58260;SDS011;44058;52.898;6.502;2022-12-18T11:05:33;8.43;;;6.00;;
58260;SDS011;44058;52.898;6.502;2022-12-18T11:08:01;7.60;;;5.43;;
58260;SDS011;44058;52.898;6.502;2022-12-18T11:10:32;9.10;;;5.63;;
58260;SDS011;44058;52.898;6.502;2022-12-18T11:13:09;8.50;;;6.10;;
58260;SDS011;44058;52.898;6.502;2022-12-18T11:15:36;8.60;;;5.53;;
58260;SDS011;44058;52.898;6.502;2022-12-18T11:18:02;8.47;;;5.43;;
58260;SDS011;44058;52.898;6.502;2022-12-18T11:20:32;9.80;;;5.47;;
58260;SDS011;44058;52.898;6.502;2022-12-18T11:23:00;7.77;;;5.47;;
58260;SDS011;44058;52.898;6.502;2022-12-18T11:25:27;7.60;;;5.07;;
58260;SDS011;44058;52.898;6.502;2022-12-18T11:30:23;7.32;;;4.75;;
58260;SDS011;44058;52.898;6.502;2022-12-18T11:32:54;8.73;;;5.93;;
58260;SDS011;44058;52.898;6.502;2022-12-18T11:36:04;7.20;;;5.27;;
58260;SDS011;44058;52.898;6.502;2022-12-18T11:40:37;7.07;;;4.50;;
58260;SDS011;44058;52.898;6.502;2022-12-18T11:46:27;6.33;;;4.67;;
58260;SDS011;44058;52.898;6.502;2022-12-18T11:50:56;7.40;;;4.50;;
58260;SDS011;44058;52.898;6.502;2022-12-18T11:53:24;6.90;;;4.60;;
58260;SDS011;44058;52.898;6.502;2022-12-18T11:56:16;6.50;;;4.43;;
58260;SDS011;44058;52.898;6.502;2022-12-18T12:01:30;6.63;;;5.27;;
58260;SDS011;44058;52.898;6.502;2022-12-18T12:16:58;8.33;;;4.37;;
58260;SDS011;44058;52.898;6.502;2022-12-18T12:22:03;5.63;;;4.40;;
58260;SDS011;44058;52.898;6.502;2022-12-18T12:27:15;6.37;;;4.27;;
58260;SDS011;44058;52.898;6.502;2022-12-18T12:32:22;8.43;;;4.88;;
58260;SDS011;44058;52.898;6.502;2022-12-18T12:34:55;10.27;;;5.13;;
58260;SDS011;44058;52.898;6.502;2022-12-18T12:40:04;6.75;;;4.18;;
58260;SDS011;44058;52.898;6.502;2022-12-18T12:42:32;7.73;;;5.17;;
58260;SDS011;44058;52.898;6.502;2022-12-18T12:45:28;6.97;;;4.60;;
58260;SDS011;44058;52.898;6.502;2022-12-18T12:47:55;10.40;;;4.90;;
58260;SDS011;44058;52.898;6.502;2022-12-18T12:50:21;6.70;;;4.93;;
58260;SDS011;44058;52.898;6.502;2022-12-18T12:52:51;6.37;;;4.60;;
58260;SDS011;44058;52.898;6.502;2022-12-18T12:55:19;7.85;;;4.53;;
58260;SDS011;44058;52.898;6.502;2022-12-18T12:58:34;7.83;;;5.23;;
58260;SDS011;44058;52.898;6.502;2022-12-18T13:00:39;8.07;;;4.53;;
58260;SDS011;44058;52.898;6.502;2022-12-18T13:03:27;8.43;;;4.57;;
58260;SDS011;44058;52.898;6.502;2022-12-18T13:05:58;7.50;;;4.97;;
58260;SDS011;44058;52.898;6.502;2022-12-18T13:08:27;7.17;;;4.60;;
58260;SDS011;44058;52.898;6.502;2022-12-18T13:10:54;7.23;;;4.77;;
58260;SDS011;44058;52.898;6.502;2022-12-18T13:16:22;7.00;;;4.60;;
58260;SDS011;44058;52.898;6.502;2022-12-18T13:18:50;6.97;;;4.90;;
58260;SDS011;44058;52.898;6.502;2022-12-18T13:21:38;8.23;;;5.00;;
58260;SDS011;44058;52.898;6.502;2022-12-18T13:24:27;6.73;;;4.73;;
58260;SDS011;44058;52.898;6.502;2022-12-18T13:27:05;7.27;;;5.17;;
58260;SDS011;44058;52.898;6.502;2022-12-18T13:29:55;7.17;;;5.17;;
58260;SDS011;44058;52.898;6.502;2022-12-18T13:32:22;10.80;;;5.60;;
58260;SDS011;44058;52.898;6.502;2022-12-18T13:35:52;8.65;;;5.05;;
58260;SDS011;44058;52.898;6.502;2022-12-18T13:37:52;7.27;;;4.70;;
58260;SDS011;44058;52.898;6.502;2022-12-18T13:43:15;7.23;;;5.27;;
58260;SDS011;44058;52.898;6.502;2022-12-18T13:45:47;6.73;;;4.93;;
58260;SDS011;44058;52.898;6.502;2022-12-18T13:48:19;8.30;;;5.18;;
58260;SDS011;44058;52.898;6.502;2022-12-18T13:50:57;9.23;;;5.37;;
58260;SDS011;44058;52.898;6.502;2022-12-18T13:53:29;9.30;;;5.43;;
58260;SDS011;44058;52.898;6.502;2022-12-18T13:55:57;8.60;;;4.90;;
58260;SDS011;44058;52.898;6.502;2022-12-18T13:58:24;6.33;;;4.90;;
58260;SDS011;44058;52.898;6.502;2022-12-18T14:00:51;8.07;;;4.67;;
58260;SDS011;44058;52.898;6.502;2022-12-18T14:03:18;7.43;;;4.97;;
58260;SDS011;44058;52.898;6.502;2022-12-18T14:05:44;8.80;;;5.23;;
58260;SDS011;44058;52.898;6.502;2022-12-18T14:08:14;9.13;;;5.13;;
58260;SDS011;44058;52.898;6.502;2022-12-18T14:10:42;7.70;;;5.00;;
58260;SDS011;44058;52.898;6.502;2022-12-18T14:13:09;8.77;;;5.43;;
58260;SDS011;44058;52.898;6.502;2022-12-18T14:15:36;9.23;;;5.50;;
58260;SDS011;44058;52.898;6.502;2022-12-18T14:20:39;11.90;;;6.27;;
58260;SDS011;44058;52.898;6.502;2022-12-18T14:23:24;8.97;;;5.33;;
58260;SDS011;44058;52.898;6.502;2022-12-18T14:25:51;9.17;;;5.77;;
58260;SDS011;44058;52.898;6.502;2022-12-18T14:28:17;9.67;;;5.63;;
58260;SDS011;44058;52.898;6.502;2022-12-18T14:30:44;7.73;;;6.13;;
58260;SDS011;44058;52.898;6.502;2022-12-18T14:33:11;10.60;;;5.87;;
58260;SDS011;44058;52.898;6.502;2022-12-18T14:35:39;10.00;;;6.30;;
58260;SDS011;44058;52.898;6.502;2022-12-18T14:38:09;8.00;;;5.63;;
58260;SDS011;44058;52.898;6.502;2022-12-18T14:40:36;10.73;;;5.97;;
58260;SDS011;44058;52.898;6.502;2022-12-18T14:43:02;9.03;;;5.73;;
58260;SDS011;44058;52.898;6.502;2022-12-18T14:48:01;8.98;;;6.05;;
58260;SDS011;44058;52.898;6.502;2022-12-18T14:50:34;8.30;;;6.00;;
58260;SDS011;44058;52.898;6.502;2022-12-18T14:53:01;8.73;;;5.77;;
58260;SDS011;44058;52.898;6.502;2022-12-18T14:55:29;9.43;;;6.53;;
58260;SDS011;44058;52.898;6.502;2022-12-18T14:57:55;10.17;;;6.20;;
58260;SDS011;44058;52.898;6.502;2022-12-18T15:00:22;10.03;;;6.80;;
58260;SDS011;44058;52.898;6.502;2022-12-18T15:02:58;10.23;;;6.37;;
58260;SDS011;44058;52.898;6.502;2022-12-18T15:05:27;9.40;;;6.67;;
58260;SDS011;44058;52.898;6.502;2022-12-18T15:07:55;9.90;;;6.17;;
58260;SDS011;44058;52.898;6.502;2022-12-18T15:10:22;9.77;;;7.17;;
58260;SDS011;44058;52.898;6.502;2022-12-18T15:18:02;12.05;;;6.68;;
58260;SDS011;44058;52.898;6.502;2022-12-18T15:20:30;9.40;;;6.33;;
58260;SDS011;44058;52.898;6.502;2022-12-18T15:22:57;11.82;;;6.32;;
58260;SDS011;44058;52.898;6.502;2022-12-18T15:25:32;10.30;;;6.50;;
58260;SDS011;44058;52.898;6.502;2022-12-18T15:28:02;10.57;;;7.30;;
58260;SDS011;44058;52.898;6.502;2022-12-18T15:30:32;11.50;;;6.50;;
58260;SDS011;44058;52.898;6.502;2022-12-18T15:33:24;10.60;;;7.00;;
58260;SDS011;44058;52.898;6.502;2022-12-18T15:35:58;10.23;;;6.40;;
58260;SDS011;44058;52.898;6.502;2022-12-18T15:38:26;10.77;;;7.40;;
58260;SDS011;44058;52.898;6.502;2022-12-18T15:40:52;13.57;;;7.80;;
58260;SDS011;44058;52.898;6.502;2022-12-18T15:43:23;11.43;;;7.47;;
58260;SDS011;44058;52.898;6.502;2022-12-18T15:46:03;12.87;;;7.83;;
58260;SDS011;44058;52.898;6.502;2022-12-18T15:48:32;12.10;;;7.47;;
58260;SDS011;44058;52.898;6.502;2022-12-18T15:50:59;11.17;;;7.00;;
58260;SDS011;44058;52.898;6.502;2022-12-18T15:53:43;11.53;;;7.33;;
58260;SDS011;44058;52.898;6.502;2022-12-18T15:56:11;11.97;;;7.80;;
58260;SDS011;44058;52.898;6.502;2022-12-18T15:58:58;13.50;;;8.10;;
58260;SDS011;44058;52.898;6.502;2022-12-18T16:01:32;14.47;;;9.77;;
58260;SDS011;44058;52.898;6.502;2022-12-18T16:04:12;13.47;;;8.37;;
58260;SDS011;44058;52.898;6.502;2022-12-18T16:06:39;14.10;;;8.47;;
58260;SDS011;44058;52.898;6.502;2022-12-18T16:09:09;11.63;;;8.13;;
58260;SDS011;44058;52.898;6.502;2022-12-18T16:11:36;11.40;;;7.37;;